Time;durP1;ratioP1;P1;durP2;ratioP2;P2;SDS_P1;SDS_P2;PMS_P1;PMS_P2;Temp;Humidity;BMP_temperature;BMP_pressure;BME280_temperature;BME280_humidity;BME280_pressure;Samples;Min_cycle;Max_cycle;Signal;HPM_P1;HPM_P2
2022/05/15 00:01:40;;;;;;;20.95;11.80;;;;;;;;;;6197629;28;20264;-88
2022/05/15 00:04:40;;;;;;;19.17;11.73;;;;;;;;;;6191361;28;20029;-88
2022/05/15 00:07:40;;;;;;;17.88;10.35;;;;;;;;;;6194231;28;20023;-88
2022/05/15 00:10:41;;;;;;;16.60;9.40;;;;;;;;;;6180331;28;20440;-87
2022/05/15 00:13:41;;;;;;;17.98;10.60;;;;;;;;;;6190487;28;20609;-88
2022/05/15 00:16:42;;;;;;;16.33;9.43;;;;;;;;;;6187528;28;20019;-88
2022/05/15 00:19:42;;;;;;;19.98;10.73;;;;;;;;;;6178389;28;20258;-88
2022/05/15 00:22:42;;;;;;;16.57;9.03;;;;;;;;;;6180092;28;20097;-88
2022/05/15 00:25:42;;;;;;;22.00;12.35;;;;;;;;;;6178924;28;20364;-88
2022/05/15 00:28:43;;;;;;;19.05;10.85;;;;;;;;;;6191923;28;20031;-88
2022/05/15 00:31:43;;;;;;;17.98;10.27;;;;;;;;;;6198186;28;20082;-87
2022/05/15 00:34:43;;;;;;;19.30;10.55;;;;;;;;;;6180375;28;20023;-88
2022/05/15 00:37:43;;;;;;;15.90;10.37;;;;;;;;;;6181267;28;20069;-88
2022/05/15 00:40:44;;;;;;;17.95;9.63;;;;;;;;;;6194000;28;20272;-88
2022/05/15 00:43:49;;;;;;;19.15;10.85;;;;;;;;;;6191749;28;20034;-87
2022/05/15 00:46:49;;;;;;;17.60;10.27;;;;;;;;;;6191400;28;20034;-87
2022/05/15 00:49:50;;;;;;;18.93;10.30;;;;;;;;;;6183115;28;20031;-88
2022/05/15 00:52:53;;;;;;;17.65;9.05;;;;;;;;;;6180756;28;20335;-88
2022/05/15 00:55:53;;;;;;;14.48;9.52;;;;;;;;;;6172593;28;20026;-88
2022/05/15 00:58:56;;;;;;;17.92;9.90;;;;;;;;;;6168438;28;20030;-88
2022/05/15 01:01:57;;;;;;;17.30;11.32;;;;;;;;;;6181465;28;20058;-88
2022/05/15 01:04:57;;;;;;;17.30;10.98;;;;;;;;;;6190243;28;20082;-88
2022/05/15 01:07:58;;;;;;;22.47;11.23;;;;;;;;;;6184705;28;20019;-87
2022/05/15 01:11:00;;;;;;;16.48;9.70;;;;;;;;;;6185508;28;20263;-88
2022/05/15 01:14:05;;;;;;;20.25;9.98;;;;;;;;;;6182560;28;20023;-88
2022/05/15 01:17:05;;;;;;;19.40;9.40;;;;;;;;;;6188696;28;20113;-88
2022/05/15 01:20:07;;;;;;;17.23;9.60;;;;;;;;;;6183959;28;20022;-88
2022/05/15 01:23:07;;;;;;;;;;;;;;;;;;6186482;28;20770;-88
2022/05/15 01:26:08;;;;;;;20.75;8.88;;;;;;;;;;6194140;28;20423;-88
2022/05/15 01:29:08;;;;;;;16.75;9.23;;;;;;;;;;6184571;28;20023;-88
2022/05/15 01:32:09;;;;;;;22.10;9.18;;;;;;;;;;6196214;28;20430;-88
2022/05/15 01:35:09;;;;;;;18.73;9.43;;;;;;;;;;6198196;28;20026;-88
2022/05/15 01:38:10;;;;;;;13.90;7.90;;;;;;;;;;6186614;28;20065;-87
2022/05/15 01:41:12;;;;;;;17.85;9.23;;;;;;;;;;6191141;28;20026;-87
2022/05/15 01:44:12;;;;;;;16.08;9.68;;;;;;;;;;6201275;28;20046;-88
2022/05/15 01:47:13;;;;;;;17.17;8.93;;;;;;;;;;6201502;28;20114;-88
2022/05/15 01:50:13;;;;;;;16.38;8.98;;;;;;;;;;6191547;28;20388;-87
2022/05/15 01:53:13;;;;;;;17.20;8.65;;;;;;;;;;6178103;28;20030;-87
2022/05/15 01:56:13;;;;;;;19.47;9.47;;;;;;;;;;6191405;28;20022;-88
2022/05/15 01:59:14;;;;;;;15.77;9.25;;;;;;;;;;6177266;28;20265;-88
2022/05/15 02:02:14;;;;;;;20.67;9.55;;;;;;;;;;6177967;28;20084;-88
2022/05/15 02:05:15;;;;;;;15.82;10.55;;;;;;;;;;6178949;28;20103;-87
2022/05/15 02:08:15;;;;;;;19.60;8.18;;;;;;;;;;6184575;28;20029;-88
2022/05/15 02:11:15;;;;;;;15.07;8.77;;;;;;;;;;6182851;28;20474;-88
2022/05/15 02:14:15;;;;;;;18.47;9.30;;;;;;;;;;6196637;28;20265;-87
2022/05/15 02:17:16;;;;;;;16.10;9.43;;;;;;;;;;6189031;28;20653;-88
2022/05/15 02:20:16;;;;;;;13.77;9.77;;;;;;;;;;6177737;28;20034;-88
2022/05/15 02:23:17;;;;;;;15.95;9.10;;;;;;;;;;6183514;28;20011;-87
2022/05/15 02:26:17;;;;;;;17.27;9.77;;;;;;;;;;6176311;28;20096;-87
2022/05/15 02:29:17;;;;;;;15.65;8.57;;;;;;;;;;6182699;28;20263;-87
2022/05/15 02:32:18;;;;;;;14.07;8.38;;;;;;;;;;6182131;28;20098;-87
2022/05/15 02:35:18;;;;;;;12.45;7.88;;;;;;;;;;6186764;28;20027;-87
2022/05/15 02:38:18;;;;;;;18.17;8.50;;;;;;;;;;6191287;28;20050;-87
2022/05/15 02:41:18;;;;;;;16.48;8.57;;;;;;;;;;6219943;28;20022;-87
2022/05/15 02:44:19;;;;;;;14.00;8.27;;;;;;;;;;6193685;28;20105;-88
2022/05/15 02:47:19;;;;;;;13.15;8.80;;;;;;;;;;6184009;28;20353;-87
2022/05/15 02:53:44;;;;;;;15.52;9.02;;;;;;;;;;6168124;28;20387;-87
2022/05/15 02:56:44;;;;;;;14.93;9.07;;;;;;;;;;6169642;28;20019;-87
2022/05/15 02:59:45;;;;;;;21.58;10.68;;;;;;;;;;6168769;28;20438;-87
2022/05/15 03:02:45;;;;;;;13.37;9.73;;;;;;;;;;6172413;28;20011;-87
2022/05/15 03:05:45;;;;;;;18.52;9.90;;;;;;;;;;6174453;28;20341;-87
2022/05/15 03:08:49;;;;;;;17.98;9.68;;;;;;;;;;6186856;28;20527;-87
2022/05/15 03:11:49;;;;;;;17.20;9.07;;;;;;;;;;6190215;28;20497;-87
2022/05/15 03:14:49;;;;;;;16.40;10.27;;;;;;;;;;6192724;28;20060;-87
2022/05/15 03:17:49;;;;;;;15.55;10.02;;;;;;;;;;6194437;28;20126;-87
2022/05/15 03:20:50;;;;;;;15.05;8.80;;;;;;;;;;6191738;28;20018;-87
2022/05/15 03:23:50;;;;;;;14.50;8.97;;;;;;;;;;6191805;28;20106;-87
2022/05/15 03:26:50;;;;;;;17.43;8.47;;;;;;;;;;6187153;28;20272;-87
2022/05/15 03:29:50;;;;;;;21.67;9.25;;;;;;;;;;6181935;28;20270;-87
2022/05/15 03:32:51;;;;;;;15.60;8.30;;;;;;;;;;6200466;28;20077;-87
2022/05/15 03:35:51;;;;;;;18.30;9.43;;;;;;;;;;6201615;28;20863;-87
2022/05/15 03:38:52;;;;;;;15.73;7.47;;;;;;;;;;6193394;28;20050;-87
2022/05/15 03:41:52;;;;;;;15.93;7.82;;;;;;;;;;6188906;28;20266;-87
2022/05/15 03:44:53;;;;;;;14.65;8.35;;;;;;;;;;6182142;28;20033;-87
2022/05/15 03:47:54;;;;;;;14.73;7.47;;;;;;;;;;6192691;28;20018;-87
2022/05/15 03:50:55;;;;;;;15.00;8.68;;;;;;;;;;6203625;28;20482;-87
2022/05/15 03:53:55;;;;;;;16.08;8.45;;;;;;;;;;6188837;28;20163;-87
2022/05/15 03:56:55;;;;;;;15.70;9.53;;;;;;;;;;6180130;28;20027;-87
2022/05/15 03:59:55;;;;;;;23.47;10.40;;;;;;;;;;6180621;28;20262;-87
2022/05/15 04:02:56;;;;;;;19.98;9.32;;;;;;;;;;6191083;28;20292;-86
2022/05/15 04:05:56;;;;;;;21.15;9.48;;;;;;;;;;6195337;28;20389;-87
2022/05/15 04:08:56;;;;;;;18.13;9.60;;;;;;;;;;6182573;28;20026;-87
2022/05/15 04:11:56;;;;;;;18.55;9.73;;;;;;;;;;6189152;28;20030;-87
2022/05/15 04:14:57;;;;;;;22.20;9.47;;;;;;;;;;6198456;28;20072;-87
2022/05/15 04:17:57;;;;;;;18.70;11.00;;;;;;;;;;6197047;28;20659;-87
2022/05/15 04:20:57;;;;;;;16.05;10.15;;;;;;;;;;6199914;28;20270;-87
2022/05/15 04:23:57;;;;;;;18.77;10.87;;;;;;;;;;6194731;28;20025;-87
2022/05/15 04:26:58;;;;;;;16.37;10.37;;;;;;;;;;6210052;28;20289;-87
2022/05/15 04:29:58;;;;;;;23.40;12.05;;;;;;;;;;6196364;28;20297;-87
2022/05/15 04:32:58;;;;;;;23.23;12.00;;;;;;;;;;6205195;28;20034;-86
2022/05/15 04:35:59;;;;;;;20.65;12.02;;;;;;;;;;6195243;28;20027;-86
2022/05/15 04:39:01;;;;;;;17.13;10.32;;;;;;;;;;6206967;28;20038;-86
2022/05/15 04:42:02;;;;;;;19.38;11.70;;;;;;;;;;6211728;28;20024;-86
2022/05/15 04:45:02;;;;;;;21.92;11.02;;;;;;;;;;6215297;28;20500;-86
2022/05/15 04:48:03;;;;;;;19.02;11.43;;;;;;;;;;6202432;28;20002;-87
2022/05/15 04:51:03;;;;;;;20.63;11.75;;;;;;;;;;6207691;28;20115;-87
2022/05/15 04:54:04;;;;;;;19.88;10.95;;;;;;;;;;6207726;28;20023;-87
2022/05/15 04:57:05;;;;;;;19.00;11.05;;;;;;;;;;6188073;28;20027;-86
2022/05/15 05:00:08;;;;;;;20.60;11.27;;;;;;;;;;6184314;28;20025;-86
2022/05/15 05:03:08;;;;;;;17.80;10.68;;;;;;;;;;6191160;28;20357;-86
2022/05/15 05:06:08;;;;;;;18.23;8.97;;;;;;;;;;6184060;28;20080;-86
2022/05/15 05:09:08;;;;;;;14.88;7.80;;;;;;;;;;6195401;28;20620;-86
2022/05/15 05:12:09;;;;;;;13.40;7.07;;;;;;;;;;6200763;28;20057;-86
2022/05/15 05:15:12;;;;;;;13.45;6.28;;;;;;;;;;6203900;28;20281;-87
2022/05/15 05:18:15;;;;;;;14.20;6.13;;;;;;;;;;6180979;28;20034;-86
2022/05/15 05:21:16;;;;;;;15.68;6.53;;;;;;;;;;6195507;28;20034;-86
2022/05/15 05:24:17;;;;;;;14.23;6.73;;;;;;;;;;6187289;28;20079;-86
2022/05/15 05:27:17;;;;;;;12.07;5.97;;;;;;;;;;6196196;28;20026;-86
2022/05/15 05:30:19;;;;;;;14.73;6.53;;;;;;;;;;6200966;28;20026;-86
2022/05/15 05:33:19;;;;;;;;;;;;;;;;;;6174507;28;20072;-86
2022/05/15 05:36:19;;;;;;;16.75;6.43;;;;;;;;;;6185220;28;19914;-87
2022/05/15 05:39:21;;;;;;;12.57;5.57;;;;;;;;;;6192226;28;20018;-87
2022/05/15 05:42:21;;;;;;;11.20;5.07;;;;;;;;;;6200311;28;20050;-87
2022/05/15 05:45:22;;;;;;;16.67;6.17;;;;;;;;;;6204449;28;20190;-87
2022/05/15 05:48:22;;;;;;;11.60;5.00;;;;;;;;;;6191974;28;20026;-87
2022/05/15 05:51:22;;;;;;;11.03;5.50;;;;;;;;;;6170531;28;20024;-86
2022/05/15 05:54:22;;;;;;;14.73;6.80;;;;;;;;;;6180765;28;20023;-86
2022/05/15 05:57:23;;;;;;;10.37;5.10;;;;;;;;;;6187532;28;20046;-87
2022/05/15 06:00:24;;;;;;;9.30;4.73;;;;;;;;;;6177002;28;20011;-87
2022/05/15 06:06:44;;;;;;;12.68;5.05;;;;;;;;;;6165098;28;20035;-87
2022/05/15 06:09:45;;;;;;;11.80;5.77;;;;;;;;;;6165961;28;20026;-87
2022/05/15 06:12:45;;;;;;;;;;;;;;;;;;6171307;28;20022;-87
2022/05/15 06:15:46;;;;;;;12.23;5.07;;;;;;;;;;6184765;28;19916;-87
2022/05/15 06:18:46;;;;;;;11.63;4.27;;;;;;;;;;6175647;28;20019;-87
2022/05/15 06:21:47;;;;;;;10.17;4.33;;;;;;;;;;6177066;28;20204;-87
2022/05/15 06:24:47;;;;;;;10.93;3.50;;;;;;;;;;6180042;28;20090;-87
2022/05/15 06:27:47;;;;;;;12.00;4.87;;;;;;;;;;6179943;28;20383;-87
2022/05/15 06:30:48;;;;;;;9.80;4.20;;;;;;;;;;6199023;28;20527;-87
2022/05/15 06:33:48;;;;;;;14.80;4.90;;;;;;;;;;6180969;28;20031;-87
2022/05/15 06:36:48;;;;;;;10.43;3.63;;;;;;;;;;6183076;28;20046;-87
2022/05/15 06:39:48;;;;;;;;;;;;;;;;;;6190427;28;20074;-87
2022/05/15 06:42:48;;;;;;;13.00;3.70;;;;;;;;;;6198119;28;20016;-87
2022/05/15 06:45:48;;;;;;;;;;;;;;;;;;6191508;28;20022;-87
2022/05/15 06:48:49;;;;;;;13.77;4.00;;;;;;;;;;6199629;28;19913;-87
2022/05/15 06:51:49;;;;;;;;;;;;;;;;;;6195500;28;20030;-87
2022/05/15 06:54:50;;;;;;;10.63;4.13;;;;;;;;;;6194758;28;19906;-87
2022/05/15 06:57:50;;;;;;;6.83;3.20;;;;;;;;;;6191719;28;20074;-88
2022/05/15 07:00:50;;;;;;;10.57;4.67;;;;;;;;;;6190244;28;20042;-88
2022/05/15 07:03:51;;;;;;;14.60;4.20;;;;;;;;;;6173538;28;20015;-88
2022/05/15 07:06:51;;;;;;;9.23;3.67;;;;;;;;;;6198455;28;20037;-88
2022/05/15 07:09:51;;;;;;;9.33;3.57;;;;;;;;;;6183162;28;20078;-88
2022/05/15 07:12:52;;;;;;;;;;;;;;;;;;6177538;28;20023;-88
2022/05/15 07:15:52;;;;;;;12.98;3.50;;;;;;;;;;6168902;28;19910;-88
2022/05/15 07:18:52;;;;;;;;;;;;;;;;;;6176938;28;20015;-87
2022/05/15 07:21:53;;;;;;;10.15;3.55;;;;;;;;;;6169069;28;19910;-88
2022/05/15 07:24:53;;;;;;;;;;;;;;;;;;6182531;28;20084;-86
2022/05/15 07:27:53;;;;;;;7.43;3.13;;;;;;;;;;6186157;28;19910;-86
2022/05/15 07:30:53;;;;;;;;;;;;;;;;;;6179580;28;20023;-86
2022/05/15 07:33:53;;;;;;;11.15;3.42;;;;;;;;;;6189589;28;19980;-87
2022/05/15 07:36:54;;;;;;;;;;;;;;;;;;6173104;28;20078;-87
2022/05/15 07:39:54;;;;;;;9.45;2.50;;;;;;;;;;6175919;28;20017;-87
2022/05/15 07:42:54;;;;;;;;;;;;;;;;;;6182094;28;20610;-87
2022/05/15 07:45:54;;;;;;;11.50;3.30;;;;;;;;;;6183673;28;19910;-87
2022/05/15 07:48:55;;;;;;;;;;;;;;;;;;6190069;28;19999;-87
2022/05/15 07:51:55;;;;;;;12.27;3.33;;;;;;;;;;6189484;28;19917;-87
2022/05/15 07:54:55;;;;;;;;;;;;;;;;;;6191641;28;20022;-87
2022/05/15 07:57:55;;;;;;;11.38;2.88;;;;;;;;;;6191309;28;19961;-87
2022/05/15 08:00:56;;;;;;;9.00;3.10;;;;;;;;;;6199252;28;20030;-88
2022/05/15 08:03:56;;;;;;;7.55;2.67;;;;;;;;;;6184419;28;20019;-87
2022/05/15 08:10:15;;;;;;;10.32;2.40;;;;;;;;;;6187302;28;20046;-87
2022/05/15 08:13:21;;;;;;;10.13;3.50;;;;;;;;;;6194519;28;20029;-87
2022/05/15 08:16:22;;;;;;;8.43;2.30;;;;;;;;;;6186622;28;20444;-87
2022/05/15 08:26:00;;;;;;;10.25;2.78;;;;;;;;;;6190235;28;20031;-87
2022/05/15 08:29:00;;;;;;;10.13;2.42;;;;;;;;;;6195936;28;20059;-87
2022/05/15 08:32:01;;;;;;;11.13;2.50;;;;;;;;;;6200156;28;20018;-87
2022/05/15 08:35:01;;;;;;;9.77;2.90;;;;;;;;;;6197546;28;20014;-86
2022/05/15 08:38:01;;;;;;;8.10;2.40;;;;;;;;;;6191080;28;20080;-87
2022/05/15 08:41:01;;;;;;;6.77;2.17;;;;;;;;;;6188026;28;20504;-87
2022/05/15 08:44:10;;;;;;;9.93;3.07;;;;;;;;;;6205952;28;20071;-87
2022/05/15 08:47:19;;;;;;;7.65;2.13;;;;;;;;;;6196062;28;20035;-87
2022/05/15 08:50:23;;;;;;;8.40;2.30;;;;;;;;;;6190028;28;20023;-87
2022/05/15 08:53:34;;;;;;;3.75;2.05;;;;;;;;;;6176771;28;20037;-87
2022/05/15 08:56:38;;;;;;;4.70;2.50;;;;;;;;;;6177505;28;20072;-88
2022/05/15 08:59:43;;;;;;;11.65;3.00;;;;;;;;;;6176907;28;20011;-86
2022/05/15 09:02:43;;;;;;;7.43;2.25;;;;;;;;;;6188389;28;20136;-86
2022/05/15 09:05:46;;;;;;;5.97;2.20;;;;;;;;;;6185364;28;20074;-86
2022/05/15 09:09:02;;;;;;;6.93;2.55;;;;;;;;;;6189229;28;20015;-87
2022/05/15 09:12:06;;;;;;;6.68;2.20;;;;;;;;;;6190996;28;20034;-87
2022/05/15 09:15:16;;;;;;;6.57;1.98;;;;;;;;;;6181181;28;20027;-87
2022/05/15 09:18:17;;;;;;;4.45;1.67;;;;;;;;;;6195067;28;20446;-86
2022/05/15 09:21:17;;;;;;;9.23;2.72;;;;;;;;;;6190106;28;20035;-87
2022/05/15 09:24:27;;;;;;;6.03;1.70;;;;;;;;;;6186649;28;20398;-86
2022/05/15 09:27:28;;;;;;;7.38;2.83;;;;;;;;;;6173488;28;20125;-87
2022/05/15 09:30:42;;;;;;;4.63;2.20;;;;;;;;;;6170265;28;20024;-86
2022/05/15 09:33:55;;;;;;;6.97;2.15;;;;;;;;;;6185261;28;20107;-86
2022/05/15 09:40:15;;;;;;;10.02;2.60;;;;;;;;;;6163609;28;20031;-86
2022/05/15 09:43:33;;;;;;;7.77;2.23;;;;;;;;;;6170194;28;20033;-87
2022/05/15 09:46:34;;;;;;;21.13;12.73;;;;;;;;;;6170512;28;20372;-86
2022/05/15 09:49:34;;;;;;;22.67;17.10;;;;;;;;;;6170566;28;20031;-86
2022/05/15 09:52:38;;;;;;;10.27;6.60;;;;;;;;;;6173014;28;20293;-87
2022/05/15 09:55:38;;;;;;;19.15;11.95;;;;;;;;;;6162686;28;20464;-87
2022/05/15 09:58:45;;;;;;;4.20;1.87;;;;;;;;;;6172766;28;20020;-87
2022/05/15 10:01:55;;;;;;;7.55;3.78;;;;;;;;;;6169950;28;20023;-86
2022/05/15 10:04:56;;;;;;;13.50;6.15;;;;;;;;;;6169129;28;20027;-86
2022/05/15 10:07:59;;;;;;;8.25;3.40;;;;;;;;;;6167462;28;20024;-86
2022/05/15 10:11:01;;;;;;;30.27;26.15;;;;;;;;;;6166125;28;20080;-88
2022/05/15 10:14:02;;;;;;;9.70;7.90;;;;;;;;;;6176719;28;20467;-87
2022/05/15 10:17:03;;;;;;;7.32;4.97;;;;;;;;;;6181704;28;20122;-88
2022/05/15 10:20:04;;;;;;;15.70;12.27;;;;;;;;;;6166840;28;20130;-87
2022/05/15 10:23:19;;;;;;;10.65;6.57;;;;;;;;;;6175356;28;20030;-87
2022/05/15 10:26:21;;;;;;;5.75;1.77;;;;;;;;;;6167563;28;20038;-88
2022/05/15 10:29:36;;;;;;;4.47;1.90;;;;;;;;;;6174473;28;20037;-87
2022/05/15 10:32:46;;;;;;;47.55;28.08;;;;;;;;;;6177208;28;20101;-87
2022/05/15 10:36:01;;;;;;;16.85;10.10;;;;;;;;;;6170064;28;20029;-87
2022/05/15 10:39:04;;;;;;;7.40;3.67;;;;;;;;;;6182053;28;20043;-88
2022/05/15 10:42:14;;;;;;;9.48;4.65;;;;;;;;;;6181186;28;20065;-88
2022/05/15 10:45:31;;;;;;;8.02;2.78;;;;;;;;;;6170977;28;20043;-87
2022/05/15 10:48:34;;;;;;;9.40;3.83;;;;;;;;;;6166140;28;20031;-87
2022/05/15 10:51:50;;;;;;;10.52;3.25;;;;;;;;;;6178775;28;20037;-87
2022/05/15 10:58:15;;;;;;;6.43;3.28;;;;;;;;;;6174683;28;20098;-86
2022/05/15 11:01:23;;;;;;;33.90;22.08;;;;;;;;;;6181114;28;20076;-86
2022/05/15 11:04:30;;;;;;;5.40;2.10;;;;;;;;;;6170401;28;20026;-86
2022/05/15 11:07:36;;;;;;;6.28;1.80;;;;;;;;;;6166304;28;20058;-86
2022/05/15 11:10:43;;;;;;;13.15;5.50;;;;;;;;;;6163043;28;20031;-87
2022/05/15 11:14:01;;;;;;;15.57;4.18;;;;;;;;;;6164433;28;20034;-85
2022/05/15 11:17:17;;;;;;;14.57;4.90;;;;;;;;;;6170131;28;20120;-85
2022/05/15 11:20:22;;;;;;;3.33;1.80;;;;;;;;;;6174069;28;20032;-86
2022/05/15 11:23:25;;;;;;;11.93;5.00;;;;;;;;;;6178259;28;20019;-87
2022/05/15 11:26:37;;;;;;;16.95;6.70;;;;;;;;;;6187008;28;20762;-87
2022/05/15 11:29:41;;;;;;;4.00;1.40;;;;;;;;;;6175219;28;20125;-87
2022/05/15 11:32:41;;;;;;;4.43;2.13;;;;;;;;;;6180555;28;20026;-87
2022/05/15 11:36:01;;;;;;;8.90;3.97;;;;;;;;;;6181361;28;20023;-87
2022/05/15 11:39:14;;;;;;;8.35;2.70;;;;;;;;;;6181837;28;20062;-87
2022/05/15 11:42:17;;;;;;;4.82;2.72;;;;;;;;;;6172569;28;20026;-86
2022/05/15 11:45:32;;;;;;;19.98;5.85;;;;;;;;;;6177184;28;20466;-86
2022/05/15 11:48:39;;;;;;;29.00;10.48;;;;;;;;;;6165939;28;20110;-86
2022/05/15 11:51:39;;;;;;;18.77;7.35;;;;;;;;;;6177080;28;20026;-86
2022/05/15 11:54:42;;;;;;;13.93;5.23;;;;;;;;;;6179033;28;20029;-86
2022/05/15 11:57:44;;;;;;;16.50;6.40;;;;;;;;;;6170748;28;20286;-85
2022/05/15 12:00:58;;;;;;;12.70;4.95;;;;;;;;;;6188667;28;20038;-86
2022/05/15 12:03:59;;;;;;;9.75;3.35;;;;;;;;;;6180476;28;20119;-87
2022/05/15 12:06:59;;;;;;;8.75;4.20;;;;;;;;;;6184644;28;20031;-86
2022/05/15 12:10:00;;;;;;;12.47;4.30;;;;;;;;;;6188304;28;20046;-86
2022/05/15 12:13:20;;;;;;;29.17;14.63;;;;;;;;;;6186917;28;20022;-86
2022/05/15 12:16:23;;;;;;;8.35;2.58;;;;;;;;;;6201898;28;20034;-86
2022/05/15 12:19:28;;;;;;;6.95;3.45;;;;;;;;;;6201454;28;20019;-86
2022/05/15 12:22:35;;;;;;;2.80;1.30;;;;;;;;;;6176496;28;20033;-87
2022/05/15 12:25:36;;;;;;;24.08;11.13;;;;;;;;;;6187063;28;20049;-87
2022/05/15 12:28:54;;;;;;;4.63;2.42;;;;;;;;;;6181011;28;20035;-87
2022/05/15 12:31:56;;;;;;;7.80;4.00;;;;;;;;;;6165599;28;20027;-87
2022/05/15 12:34:56;;;;;;;;;;;;;;;;;;6187489;28;20117;-87
2022/05/15 12:38:05;;;;;;;5.97;1.85;;;;;;;;;;6186173;28;19937;-86
2022/05/15 12:41:12;;;;;;;8.60;3.33;;;;;;;;;;6201573;28;20022;-86
2022/05/15 12:44:12;;;;;;;3.13;1.40;;;;;;;;;;6193229;28;20026;-86
2022/05/15 12:47:20;;;;;;;4.87;2.17;;;;;;;;;;6193082;28;20033;-86
2022/05/15 12:50:21;;;;;;;5.07;1.40;;;;;;;;;;6190497;28;20023;-87
2022/05/15 12:53:35;;;;;;;5.57;1.83;;;;;;;;;;6187366;28;20516;-87
2022/05/15 12:56:36;;;;;;;5.47;1.90;;;;;;;;;;6169635;28;20093;-86
2022/05/15 12:59:38;;;;;;;2.47;0.80;;;;;;;;;;6166478;28;20102;-86
2022/05/15 13:02:38;;;;;;;4.95;1.10;;;;;;;;;;6170164;28;20161;-86
2022/05/15 13:05:49;;;;;;;6.30;1.83;;;;;;;;;;6191359;28;20101;-87
2022/05/15 13:08:51;;;;;;;5.00;1.65;;;;;;;;;;6175169;28;20029;-86
2022/05/15 13:11:54;;;;;;;3.00;1.90;;;;;;;;;;6191849;28;20033;-87
2022/05/15 13:14:56;;;;;;;4.53;1.40;;;;;;;;;;6187727;28;20019;-87
2022/05/15 13:17:58;;;;;;;1.75;1.00;;;;;;;;;;6204153;28;20035;-87
2022/05/15 13:21:02;;;;;;;5.72;3.40;;;;;;;;;;6194282;28;20114;-88
2022/05/15 13:24:04;;;;;;;2.92;1.73;;;;;;;;;;6193903;28;20086;-87
2022/05/15 13:27:05;;;;;;;5.57;1.10;;;;;;;;;;6191857;28;20078;-87
2022/05/15 13:30:05;;;;;;;;;;;;;;;;;;6195489;28;20083;-86
2022/05/15 13:33:06;;;;;;;5.38;1.20;;;;;;;;;;6176187;28;19913;-85
2022/05/15 13:36:11;;;;;;;1.98;1.00;;;;;;;;;;6194071;28;20057;-86
2022/05/15 13:46:06;;;;;;;2.70;1.00;;;;;;;;;;6175277;28;20058;-87
2022/05/15 13:49:07;;;;;;;3.33;1.00;;;;;;;;;;6176196;28;20023;-87
2022/05/15 13:52:23;;;;;;;7.72;1.45;;;;;;;;;;6174677;28;20053;-87
2022/05/15 13:55:36;;;;;;;3.25;0.90;;;;;;;;;;6186637;28;20026;-87
2022/05/15 13:58:45;;;;;;;4.32;0.95;;;;;;;;;;6181784;28;20027;-87
2022/05/15 14:02:02;;;;;;;1.95;1.13;;;;;;;;;;6174630;28;20118;-87
2022/05/15 14:05:03;;;;;;;3.45;1.30;;;;;;;;;;6201884;28;20494;-87
2022/05/15 14:08:03;;;;;;;;;;;;;;;;;;6182444;28;20038;-87
2022/05/15 14:11:05;;;;;;;8.27;4.40;;;;;;;;;;6188403;28;19898;-87
2022/05/15 14:14:05;;;;;;;1.85;1.23;;;;;;;;;;6177621;28;20020;-87
2022/05/15 14:17:05;;;;;;;;;;;;;;;;;;6167600;28;20027;-86
2022/05/15 14:20:08;;;;;;;6.35;2.60;;;;;;;;;;6170405;28;19906;-87
2022/05/15 14:23:09;;;;;;;4.05;1.45;;;;;;;;;;6171233;28;20031;-87
2022/05/15 14:26:11;;;;;;;3.00;1.40;;;;;;;;;;6169493;28;20024;-87
2022/05/15 14:29:12;;;;;;;3.13;1.33;;;;;;;;;;6172531;28;20021;-87
2022/05/15 14:32:24;;;;;;;5.90;1.95;;;;;;;;;;6178002;28;20030;-87
2022/05/15 14:35:26;;;;;;;1.98;0.80;;;;;;;;;;6185674;28;20031;-87
2022/05/15 14:38:27;;;;;;;2.88;1.17;;;;;;;;;;6191608;28;20042;-87
2022/05/15 14:41:28;;;;;;;;;;;;;;;;;;6164464;28;20432;-87
2022/05/15 14:44:28;;;;;;;5.20;2.57;;;;;;;;;;6187154;28;20408;-87
2022/05/15 14:47:28;;;;;;;;;;;;;;;;;;6179930;28;20027;-87
2022/05/15 14:50:29;;;;;;;2.00;1.20;;;;;;;;;;6174606;28;19941;-87
2022/05/15 14:53:31;;;;;;;4.43;1.17;;;;;;;;;;6180208;28;20091;-87
2022/05/15 14:56:32;;;;;;;2.78;1.30;;;;;;;;;;6184962;28;20091;-88
2022/05/15 14:59:35;;;;;;;2.15;1.10;;;;;;;;;;6186587;28;20094;-87
2022/05/15 15:02:36;;;;;;;3.65;1.83;;;;;;;;;;6171649;28;20088;-86
2022/05/15 15:05:47;;;;;;;4.60;1.85;;;;;;;;;;6172167;28;20035;-87
2022/05/15 15:08:47;;;;;;;3.55;1.10;;;;;;;;;;6177314;28;20022;-86
2022/05/15 15:11:51;;;;;;;3.80;0.80;;;;;;;;;;6185755;28;20042;-86
2022/05/15 15:14:52;;;;;;;2.50;1.13;;;;;;;;;;6189768;28;20106;-86
2022/05/15 15:17:52;;;;;;;2.00;1.10;;;;;;;;;;6195526;28;20042;-86
2022/05/15 15:20:54;;;;;;;2.20;1.00;;;;;;;;;;6186213;28;20030;-86
2022/05/15 15:23:54;;;;;;;2.80;1.23;;;;;;;;;;6192824;28;20097;-87
2022/05/15 15:26:54;;;;;;;3.95;1.45;;;;;;;;;;6178364;28;20023;-86
2022/05/15 15:29:55;;;;;;;8.13;1.03;;;;;;;;;;6168443;28;20031;-86
2022/05/15 15:32:57;;;;;;;4.43;1.20;;;;;;;;;;6182226;28;20026;-87
2022/05/15 15:35:58;;;;;;;2.65;1.20;;;;;;;;;;6175211;28;20027;-86
2022/05/15 15:38:58;;;;;;;4.20;1.10;;;;;;;;;;6174814;28;20054;-86
2022/05/15 15:41:58;;;;;;;3.80;1.17;;;;;;;;;;6174266;28;20058;-86
2022/05/15 15:45:00;;;;;;;4.57;0.80;;;;;;;;;;6168409;28;20031;-86
2022/05/15 15:48:00;;;;;;;2.88;1.10;;;;;;;;;;6174898;28;20491;-86
2022/05/15 15:51:21;;;;;;;4.13;1.03;;;;;;;;;;6172309;28;20026;-86
2022/05/15 15:54:21;;;;;;;2.47;1.00;;;;;;;;;;6174050;28;20173;-85
2022/05/15 15:57:22;;;;;;;6.33;1.20;;;;;;;;;;6191254;28;20082;-86
2022/05/15 16:00:22;;;;;;;4.97;1.70;;;;;;;;;;6173021;28;20035;-85
2022/05/15 16:03:23;;;;;;;1.55;0.98;;;;;;;;;;6170988;28;20454;-87
2022/05/15 16:06:23;;;;;;;1.73;0.90;;;;;;;;;;6166852;28;20027;-86
2022/05/15 16:09:24;;;;;;;5.53;1.40;;;;;;;;;;6169395;28;20025;-86
2022/05/15 16:12:24;;;;;;;1.53;0.83;;;;;;;;;;6160529;28;20110;-86
2022/05/15 16:15:27;;;;;;;1.23;0.67;;;;;;;;;;6183645;28;20027;-89
2022/05/15 16:18:28;;;;;;;4.18;1.30;;;;;;;;;;6162440;28;20034;-85
2022/05/15 16:21:36;;;;;;;1.97;0.87;;;;;;;;;;6169277;28;20035;-85
2022/05/15 16:24:42;;;;;;;2.25;0.90;;;;;;;;;;6174426;28;20019;-85
2022/05/15 16:27:42;;;;;;;4.93;1.00;;;;;;;;;;6163534;28;20073;-86
2022/05/15 16:30:43;;;;;;;4.50;1.10;;;;;;;;;;6174012;28;20027;-86
2022/05/15 16:33:44;;;;;;;2.25;1.20;;;;;;;;;;6166786;28;20030;-86
2022/05/15 16:36:44;;;;;;;4.87;1.00;;;;;;;;;;6170043;28;20046;-86
2022/05/15 16:39:45;;;;;;;2.10;0.87;;;;;;;;;;6172244;28;20024;-86
2022/05/15 16:42:45;;;;;;;3.07;0.60;;;;;;;;;;6167389;28;20023;-86
2022/05/15 16:45:46;;;;;;;2.22;1.15;;;;;;;;;;6166735;28;20019;-86
2022/05/15 16:48:46;;;;;;;5.07;0.97;;;;;;;;;;6173130;28;20096;-86
2022/05/15 16:51:46;;;;;;;2.90;1.03;;;;;;;;;;6170539;28;20374;-87
2022/05/15 16:54:47;;;;;;;1.33;1.23;;;;;;;;;;6179990;28;20025;-86
2022/05/15 16:57:47;;;;;;;1.50;1.07;;;;;;;;;;6159599;28;20034;-87
2022/05/15 17:00:48;;;;;;;2.60;1.17;;;;;;;;;;6183344;28;20250;-87
2022/05/15 17:03:48;;;;;;;2.13;0.97;;;;;;;;;;6184919;28;20113;-87
2022/05/15 17:06:48;;;;;;;3.70;1.30;;;;;;;;;;6175395;28;20104;-87
2022/05/15 17:09:49;;;;;;;1.23;0.77;;;;;;;;;;6187806;28;20508;-86
2022/05/15 17:12:50;;;;;;;2.47;1.03;;;;;;;;;;6180705;28;20090;-85
2022/05/15 17:15:51;;;;;;;3.05;1.20;;;;;;;;;;6181672;28;20015;-85
2022/05/15 17:18:51;;;;;;;3.03;1.00;;;;;;;;;;6170740;28;20019;-85
2022/05/15 17:21:51;;;;;;;1.10;1.00;;;;;;;;;;6172061;28;20053;-86
2022/05/15 17:24:52;;;;;;;4.33;1.83;;;;;;;;;;6156760;28;20083;-86
2022/05/15 17:27:52;;;;;;;3.17;0.97;;;;;;;;;;6176329;28;20374;-86
2022/05/15 17:34:15;;;;;;;3.67;1.17;;;;;;;;;;6172401;28;20475;-85
2022/05/15 17:37:15;;;;;;;6.22;1.02;;;;;;;;;;6167277;28;20059;-86
2022/05/15 17:40:17;;;;;;;2.47;0.73;;;;;;;;;;6185855;28;20401;-87
2022/05/15 17:43:18;;;;;;;2.00;0.90;;;;;;;;;;6178040;28;20023;-86
2022/05/15 17:46:18;;;;;;;1.30;0.90;;;;;;;;;;6189604;28;20030;-86
2022/05/15 17:49:18;;;;;;;1.67;1.00;;;;;;;;;;6186758;28;20421;-86
2022/05/15 17:52:19;;;;;;;1.97;1.23;;;;;;;;;;6179660;28;20038;-87
2022/05/15 17:55:19;;;;;;;4.10;1.43;;;;;;;;;;6172897;28;20125;-86
2022/05/15 17:58:20;;;;;;;2.10;1.57;;;;;;;;;;6169367;28;20069;-86
2022/05/15 18:01:21;;;;;;;1.23;1.13;;;;;;;;;;6175264;28;20019;-86
2022/05/15 18:04:21;;;;;;;1.70;1.20;;;;;;;;;;6195833;28;20023;-86
2022/05/15 18:07:21;;;;;;;3.53;1.30;;;;;;;;;;6169716;28;20081;-86
2022/05/15 18:10:23;;;;;;;3.93;1.30;;;;;;;;;;6172399;28;20482;-86
2022/05/15 18:13:23;;;;;;;2.83;1.67;;;;;;;;;;6172196;28;20031;-87
2022/05/15 18:16:24;;;;;;;3.03;1.37;;;;;;;;;;6183193;28;20033;-86
2022/05/15 18:19:25;;;;;;;4.37;1.40;;;;;;;;;;6179265;28;20080;-87
2022/05/15 18:22:25;;;;;;;4.67;1.37;;;;;;;;;;6187106;28;20042;-87
2022/05/15 18:25:30;;;;;;;7.10;1.57;;;;;;;;;;6165455;28;20038;-86
2022/05/15 18:28:30;;;;;;;1.90;1.13;;;;;;;;;;6170097;28;20038;-87
2022/05/15 18:31:31;;;;;;;3.77;1.60;;;;;;;;;;6162633;28;20463;-87
2022/05/15 18:34:31;;;;;;;3.38;1.17;;;;;;;;;;6164110;28;20023;-87
2022/05/15 18:37:31;;;;;;;3.00;1.40;;;;;;;;;;6174245;28;20050;-87
2022/05/15 18:40:32;;;;;;;5.33;1.70;;;;;;;;;;6180931;28;20039;-86
2022/05/15 18:43:32;;;;;;;5.30;1.20;;;;;;;;;;6179222;28;20486;-87